Startpagina
METAR-TAF:

METAR-TAF

Vliegvelden :

Georgetown, Ascension

breedte: 07-58S, lengte: 014-24W, hoogte: 86 m

METAR: ontbreekt

Tijdstip: 11:21 (11:21 UTC)

Verwachting

Dit bericht is 30 uur en het 51 minuten geleden gemaakt, om 04:30 UTC
Verwachting geldig van 20 om 06 UTC tot 20 om 24 UTC
Wind 13 kt uit het zuidoosten
Zicht 10 km of meer
Weinig wolken op 1700 ft
Verspreide wolken op 3000 ft
Kans 30% :
Tijdelijke
van 20 om 06 UTC tot 20 om 12 UTC
Zicht: 6000 m
Gebroken wolken op 1200 ft
lichte regenbuien

TAF: FHAW 200430Z 2006/2024 13013KT 9999 FEW017 SCT030 PROB30 TEMPO 2006/2012 6000 -SHRA BKN012

Waarnemingen en weersverwachtingen van meer dan 4000 vliegvelden (METAR en TAF).

De beschikbare stations zijn de gele en rode punten op de kaart.

Ga met uw muis naar het station om de naam te zien.

Klik dan om waarnemingen en weersverwachtingen te zien.

kaart wijzigen: klik op de groene knoppen met een zwart kruis om in te zoomen, op de groene knop met een streepje om uit te zoomen of op de groene pijlen voor aangrenzende kaarten.


METAR-TAF: